createdAt,value
2023-04-30T00:00:21.725Z,0.0000
2023-04-30T00:01:22.810Z,0.0000
2023-04-30T00:02:24.048Z,0.0000
2023-04-30T00:03:25.433Z,0.0000
2023-04-30T00:04:26.641Z,0.0000
2023-04-30T00:05:27.747Z,0.0000
2023-04-30T00:06:28.955Z,0.0000
2023-04-30T00:07:30.042Z,0.0000
2023-04-30T00:08:31.119Z,0.0000
2023-04-30T00:09:32.217Z,0.0000
2023-04-30T00:10:33.341Z,0.0000
2023-04-30T00:11:34.492Z,0.0000
2023-04-30T00:12:35.560Z,0.0000
2023-04-30T00:13:36.664Z,0.0000
2023-04-30T00:14:37.777Z,0.0000
2023-04-30T00:15:38.970Z,0.0000
2023-04-30T00:16:40.090Z,0.0000
2023-04-30T00:17:41.268Z,0.0000
2023-04-30T00:18:42.389Z,0.0000
2023-04-30T00:19:43.527Z,0.0000
2023-04-30T00:20:44.603Z,0.0000
2023-04-30T00:21:45.630Z,0.0000
2023-04-30T00:22:46.779Z,0.0000
2023-04-30T00:23:47.859Z,0.0000
2023-04-30T00:24:48.993Z,0.0000
2023-04-30T00:25:50.125Z,0.0000
2023-04-30T00:26:51.290Z,0.0000
2023-04-30T00:27:52.413Z,0.0000
2023-04-30T00:28:53.570Z,0.0000
2023-04-30T00:29:55.050Z,0.0000
2023-04-30T00:30:57.235Z,0.0000
2023-04-30T00:31:58.381Z,0.0000
2023-04-30T00:32:59.594Z,0.0000
2023-04-30T00:34:00.755Z,0.0000
2023-04-30T00:35:01.855Z,0.0000
2023-04-30T00:36:02.983Z,0.0000
2023-04-30T00:37:04.072Z,0.0000
2023-04-30T00:38:05.197Z,0.0000
2023-04-30T00:39:06.299Z,0.0000
2023-04-30T00:40:07.501Z,0.0000
2023-04-30T00:41:08.725Z,0.0000
2023-04-30T00:42:09.847Z,0.0000
2023-04-30T00:43:11.015Z,0.0000
2023-04-30T00:44:12.149Z,0.0000
2023-04-30T00:45:13.368Z,0.0000
2023-04-30T00:46:14.581Z,0.0000
2023-04-30T00:47:15.735Z,0.0000
2023-04-30T00:48:16.885Z,0.0000
2023-04-30T00:49:18.014Z,0.0000
2023-04-30T00:50:19.175Z,0.0000
2023-04-30T00:51:20.327Z,0.0000
2023-04-30T00:52:21.420Z,0.0000
2023-04-30T00:53:22.624Z,0.0000
2023-04-30T00:54:23.923Z,0.0000
2023-04-30T00:55:25.145Z,0.0000
2023-04-30T00:56:26.278Z,0.0000
2023-04-30T00:57:27.663Z,0.0000
2023-04-30T00:58:28.947Z,0.0000
2023-04-30T00:59:30.105Z,0.0000
2023-04-30T01:00:31.415Z,0.0000
2023-04-30T01:01:32.590Z,0.0000
2023-04-30T01:02:33.854Z,0.0000
2023-04-30T01:03:35.167Z,0.0000
2023-04-30T01:04:36.469Z,0.0000
2023-04-30T01:05:37.632Z,0.0000
2023-04-30T01:06:38.916Z,0.0000
2023-04-30T01:07:40.231Z,0.0000
2023-04-30T01:08:41.425Z,0.0000
2023-04-30T01:09:42.621Z,0.0000
2023-04-30T01:10:43.836Z,0.0000
2023-04-30T01:11:45.060Z,0.0000
2023-04-30T01:12:46.306Z,0.0000
2023-04-30T01:13:47.457Z,0.0000
2023-04-30T01:14:48.703Z,0.0000
2023-04-30T01:15:49.978Z,0.0000
2023-04-30T01:16:51.225Z,0.0000
2023-04-30T01:17:52.542Z,0.0000
2023-04-30T01:18:53.856Z,0.0000
2023-04-30T01:19:55.421Z,0.0000
2023-04-30T01:20:57.198Z,0.0000
2023-04-30T01:21:58.340Z,0.0000
2023-04-30T01:22:59.614Z,0.0000
2023-04-30T01:24:00.731Z,0.0000
2023-04-30T01:25:01.898Z,0.0000
2023-04-30T01:26:03.047Z,0.0000
2023-04-30T01:27:04.258Z,0.0000
2023-04-30T01:28:05.440Z,0.0000
2023-04-30T01:29:06.573Z,0.0000
2023-04-30T01:30:07.788Z,0.0000
2023-04-30T01:31:08.995Z,0.0000
2023-04-30T01:32:10.125Z,0.0000
2023-04-30T01:33:11.356Z,0.0000
2023-04-30T01:34:12.595Z,0.0000
2023-04-30T01:35:13.774Z,0.0000
2023-04-30T01:36:14.977Z,0.0000
2023-04-30T01:37:16.090Z,0.0000
2023-04-30T01:38:17.217Z,0.0000
2023-04-30T01:39:18.380Z,0.0000
2023-04-30T01:40:19.550Z,0.0000
2023-04-30T01:41:20.692Z,0.0000
2023-04-30T01:42:22.045Z,0.0000
2023-04-30T01:43:23.191Z,0.0000
2023-04-30T01:44:24.380Z,0.0000
2023-04-30T01:45:25.512Z,0.0000
2023-04-30T01:46:26.646Z,0.0000
2023-04-30T01:47:27.863Z,0.0000
2023-04-30T01:48:28.967Z,0.0000
2023-04-30T01:49:30.111Z,0.0000
2023-04-30T01:50:31.278Z,0.0000
2023-04-30T01:51:32.456Z,0.0000
2023-04-30T01:52:33.607Z,0.0000
2023-04-30T01:53:34.741Z,0.0000
2023-04-30T01:54:35.894Z,0.0000
2023-04-30T01:55:37.085Z,0.0000
2023-04-30T01:56:38.250Z,0.0000
2023-04-30T01:57:39.453Z,0.0000
2023-04-30T01:58:40.568Z,0.0000
2023-04-30T01:59:41.699Z,0.0000
2023-04-30T02:00:42.844Z,0.0000
2023-04-30T02:01:44.117Z,0.0000
2023-04-30T02:02:45.330Z,0.0000
2023-04-30T02:03:46.943Z,0.0000
2023-04-30T02:04:48.788Z,0.0000
2023-04-30T02:05:50.010Z,0.0000
2023-04-30T02:06:51.234Z,0.0000
2023-04-30T02:07:52.410Z,0.0000
2023-04-30T02:08:53.615Z,0.0000
2023-04-30T02:09:54.933Z,0.0000
2023-04-30T02:10:56.876Z,0.0000
2023-04-30T02:11:58.019Z,0.0000
2023-04-30T02:12:59.157Z,0.0000
2023-04-30T02:14:00.376Z,0.0000
2023-04-30T02:15:01.517Z,0.0000
2023-04-30T02:16:02.798Z,0.0000
2023-04-30T02:17:03.986Z,0.0000
2023-04-30T02:18:05.141Z,0.0000
2023-04-30T02:19:06.251Z,0.0000
2023-04-30T02:20:07.374Z,0.0000
2023-04-30T02:21:08.499Z,0.0000
2023-04-30T02:22:09.663Z,0.0000
2023-04-30T02:23:10.860Z,0.0000
2023-04-30T02:24:12.090Z,0.0000
2023-04-30T02:25:13.221Z,0.0000
2023-04-30T02:26:14.364Z,0.0000
2023-04-30T02:27:15.444Z,0.0000
2023-04-30T02:28:16.575Z,0.0000
2023-04-30T02:29:17.930Z,0.0000
2023-04-30T02:30:19.203Z,0.0000
2023-04-30T02:31:20.420Z,0.0000
2023-04-30T02:32:21.539Z,0.0000
2023-04-30T02:33:22.887Z,0.0000
2023-04-30T02:34:24.005Z,0.0000
2023-04-30T02:35:25.173Z,0.0000
2023-04-30T02:36:26.355Z,0.0000
2023-04-30T02:37:27.520Z,0.0000
2023-04-30T02:38:28.653Z,0.0000
2023-04-30T02:39:29.842Z,0.0000
2023-04-30T02:40:31.021Z,0.0000
2023-04-30T02:41:32.200Z,0.0000
2023-04-30T02:42:33.340Z,0.0000
2023-04-30T02:43:35.439Z,0.0000
2023-04-30T02:44:36.545Z,0.0000
2023-04-30T02:45:37.705Z,0.0000
2023-04-30T02:46:38.959Z,0.0000
2023-04-30T02:47:40.188Z,0.0000
2023-04-30T02:48:41.331Z,0.0000
2023-04-30T02:49:42.558Z,0.0000
2023-04-30T02:50:43.720Z,0.0000
2023-04-30T02:51:44.836Z,0.0000
2023-04-30T02:52:46.068Z,0.0000
2023-04-30T02:53:47.202Z,0.0000
2023-04-30T02:54:48.319Z,0.0000
2023-04-30T02:55:49.490Z,0.0000
2023-04-30T02:56:50.638Z,0.0000
2023-04-30T02:57:51.818Z,0.0000
2023-04-30T02:58:52.937Z,0.0000
2023-04-30T02:59:54.244Z,0.0000
2023-04-30T03:00:55.909Z,0.0000
2023-04-30T03:01:57.032Z,0.0000
2023-04-30T03:02:58.259Z,0.0000
2023-04-30T03:03:59.456Z,0.0000
2023-04-30T03:05:00.613Z,0.0000
2023-04-30T03:06:01.760Z,0.0000
2023-04-30T03:07:02.859Z,0.0000
2023-04-30T03:08:04.054Z,0.0000
2023-04-30T03:09:05.306Z,0.0000
2023-04-30T03:10:06.420Z,0.0000
2023-04-30T03:11:07.636Z,0.0000
2023-04-30T03:12:08.773Z,0.0000
2023-04-30T03:13:09.996Z,0.0000
2023-04-30T03:14:11.126Z,0.0000
2023-04-30T03:15:12.353Z,0.0000
2023-04-30T03:16:13.548Z,0.0000
2023-04-30T03:17:14.705Z,0.0000
2023-04-30T03:18:16.042Z,0.0000
2023-04-30T03:19:17.369Z,0.0000
2023-04-30T03:20:18.623Z,0.0000
2023-04-30T03:21:19.730Z,0.0000
2023-04-30T03:22:20.892Z,0.0000
2023-04-30T03:23:22.069Z,0.0000
2023-04-30T03:24:23.255Z,0.0000
2023-04-30T03:25:24.408Z,0.0000
2023-04-30T03:26:25.661Z,0.0000
2023-04-30T03:27:26.933Z,0.0000
2023-04-30T03:28:28.144Z,0.0000
2023-04-30T03:29:29.271Z,0.0000
2023-04-30T03:30:30.992Z,0.0000
2023-04-30T03:31:32.163Z,0.0000
2023-04-30T03:32:33.311Z,0.0000
2023-04-30T03:33:34.503Z,0.0000
2023-04-30T03:34:35.644Z,0.0000
2023-04-30T03:35:36.815Z,0.0000
2023-04-30T03:36:37.970Z,0.0000
2023-04-30T03:37:39.108Z,0.0000
2023-04-30T03:38:40.314Z,0.0000
2023-04-30T03:39:41.458Z,0.0000
2023-04-30T03:40:42.614Z,0.0000
2023-04-30T03:41:43.758Z,2.9565
2023-04-30T03:42:44.910Z,4.0000
2023-04-30T03:43:46.062Z,0.8696
2023-04-30T03:44:47.234Z,0.0000
2023-04-30T03:45:48.472Z,3.4783
2023-04-30T03:46:49.606Z,4.0000
2023-04-30T03:47:50.765Z,1.3913
2023-04-30T03:48:51.945Z,4.0000
2023-04-30T03:49:53.334Z,4.3478
2023-04-30T03:50:55.316Z,4.0000
2023-04-30T03:51:56.407Z,5.5652
2023-04-30T03:52:57.561Z,7.1304
2023-04-30T03:53:58.705Z,8.3478
2023-04-30T03:54:59.868Z,10.0870
2023-04-30T03:56:01.032Z,12.3478
2023-04-30T03:57:02.211Z,15.8261
2023-04-30T03:58:03.363Z,16.8696
2023-04-30T03:59:04.511Z,20.3478
2023-04-30T04:00:05.664Z,24.1739
2023-04-30T04:01:06.992Z,28.6957
2023-04-30T04:02:08.328Z,33.2174
2023-04-30T04:03:09.834Z,38.6087
2023-04-30T04:04:11.088Z,45.9130
2023-04-30T04:05:12.258Z,58.6087
2023-04-30T04:06:13.382Z,69.2174
2023-04-30T04:07:14.551Z,77.7391
2023-04-30T04:08:15.692Z,89.7391
2023-04-30T04:09:16.882Z,105.0435
2023-04-30T04:10:17.981Z,117.9130
2023-04-30T04:11:19.121Z,134.6087
2023-04-30T04:12:20.331Z,147.1304
2023-04-30T04:13:21.488Z,162.2609
2023-04-30T04:14:22.683Z,174.0870
2023-04-30T04:15:23.852Z,195.1304
2023-04-30T04:16:25.042Z,209.2174
2023-04-30T04:17:26.312Z,225.7391
2023-04-30T04:18:27.554Z,249.3913
2023-04-30T04:19:28.750Z,267.8261
2023-04-30T04:20:30.091Z,292.6956
2023-04-30T04:21:31.312Z,336.1739
2023-04-30T04:22:32.516Z,362.7826
2023-04-30T04:23:33.793Z,380.3478
2023-04-30T04:24:34.983Z,402.2609
2023-04-30T04:25:36.118Z,434.6087
2023-04-30T04:26:37.401Z,464.5217
2023-04-30T04:27:38.547Z,484.1739
2023-04-30T04:28:39.643Z,510.4348
2023-04-30T04:29:40.870Z,539.6522
2023-04-30T04:30:41.990Z,557.9130
2023-04-30T04:31:43.153Z,573.9130
2023-04-30T04:32:44.373Z,593.3913
2023-04-30T04:33:45.587Z,616.6957
2023-04-30T04:34:46.758Z,627.1304
2023-04-30T04:35:47.996Z,637.7391
2023-04-30T04:36:49.137Z,658.2609
2023-04-30T04:37:50.545Z,679.1304
2023-04-30T04:38:51.687Z,705.3913
2023-04-30T04:39:53.055Z,697.0435
2023-04-30T04:40:55.264Z,704.6957
2023-04-30T04:41:56.542Z,747.6522
2023-04-30T04:42:57.722Z,775.6522
2023-04-30T04:43:58.993Z,774.9565
2023-04-30T04:45:00.120Z,786.9565
2023-04-30T04:46:01.355Z,815.6522
2023-04-30T04:47:02.552Z,887.4783
2023-04-30T04:48:03.852Z,912.0000
2023-04-30T04:49:05.027Z,900.8696
2023-04-30T04:50:06.224Z,894.0870
2023-04-30T04:51:07.415Z,908.5217
2023-04-30T04:52:08.638Z,1004.0000
2023-04-30T04:53:09.827Z,1048.3478
2023-04-30T04:54:11.002Z,1102.7826
2023-04-30T04:55:12.140Z,1211.8260
2023-04-30T04:56:13.356Z,1274.0869
2023-04-30T04:57:14.574Z,1252.6957
2023-04-30T04:58:15.774Z,1297.0435
2023-04-30T04:59:16.987Z,1339.4783
2023-04-30T05:00:18.120Z,1340.1740
2023-04-30T05:01:19.291Z,1374.0869
2023-04-30T05:02:20.463Z,1418.4348
2023-04-30T05:03:21.879Z,1490.4348
2023-04-30T05:04:23.293Z,1666.0869
2023-04-30T05:05:24.505Z,1825.3914
2023-04-30T05:06:25.703Z,1854.9565
2023-04-30T05:07:26.872Z,1995.1305
2023-04-30T05:08:28.084Z,2140.1738
2023-04-30T05:09:29.327Z,2426.2610
2023-04-30T05:10:30.537Z,2654.9565
2023-04-30T05:11:31.780Z,2816.3479
2023-04-30T05:12:32.962Z,3004.6956
2023-04-30T05:13:34.296Z,3096.5217
2023-04-30T05:14:35.477Z,3161.9131
2023-04-30T05:15:36.683Z,3360.5217
2023-04-30T05:16:38.096Z,3645.2173
2023-04-30T05:17:39.793Z,3887.4783
2023-04-30T05:18:41.092Z,3995.1304
2023-04-30T05:19:42.292Z,4022.9565
2023-04-30T05:20:43.707Z,3937.3914
2023-04-30T05:21:44.891Z,3849.7390
2023-04-30T05:22:46.110Z,3833.5652
2023-04-30T05:23:47.333Z,3820.5217
2023-04-30T05:24:48.504Z,3864.0000
2023-04-30T05:25:49.770Z,3943.3044
2023-04-30T05:26:50.949Z,4063.1304
2023-04-30T05:27:52.155Z,4049.2173
2023-04-30T05:28:53.374Z,4020.3479
2023-04-30T05:29:54.737Z,4182.4346
2023-04-30T05:30:56.642Z,4301.2173
2023-04-30T05:31:57.961Z,4387.1304
2023-04-30T05:32:59.548Z,4360.3477
2023-04-30T05:34:00.836Z,4304.6958
2023-04-30T05:35:02.085Z,4484.3477
2023-04-30T05:36:03.327Z,4554.7827
2023-04-30T05:37:04.549Z,4768.5220
2023-04-30T05:38:05.774Z,4835.8262
2023-04-30T05:39:06.995Z,4924.5220
2023-04-30T05:40:08.227Z,4974.0869
2023-04-30T05:41:09.526Z,5092.0000
2023-04-30T05:42:10.701Z,4957.9131
2023-04-30T05:43:12.121Z,5204.3477
2023-04-30T05:44:13.327Z,4993.7393
2023-04-30T05:45:14.633Z,5165.9131
2023-04-30T05:46:15.926Z,5035.3042
2023-04-30T05:47:17.199Z,4947.6523
2023-04-30T05:48:18.498Z,4938.6089
2023-04-30T05:49:19.692Z,5179.1304
2023-04-30T05:50:20.886Z,5868.3477
2023-04-30T05:51:22.187Z,5900.3477
2023-04-30T05:52:23.406Z,5896.1738
2023-04-30T05:53:24.675Z,5467.8262
2023-04-30T05:54:25.909Z,5321.7393
2023-04-30T05:55:27.452Z,5163.1304
2023-04-30T05:56:28.827Z,4962.9565
2023-04-30T05:57:30.110Z,5080.3477
2023-04-30T05:58:31.319Z,4661.3911
2023-04-30T05:59:32.546Z,4461.3911
2023-04-30T06:00:33.842Z,5328.3477
2023-04-30T06:01:35.140Z,4926.2607
2023-04-30T06:02:36.533Z,4294.6089
2023-04-30T06:03:38.357Z,4816.6958
2023-04-30T06:04:39.619Z,4776.8696
2023-04-30T06:05:41.124Z,4127.4780
2023-04-30T06:06:43.018Z,4062.4348
2023-04-30T06:07:44.552Z,4333.5654
2023-04-30T06:08:45.846Z,4512.5220
2023-04-30T06:09:47.150Z,4582.4346
2023-04-30T06:10:48.391Z,5163.4780
2023-04-30T06:11:49.662Z,5723.6523
2023-04-30T06:12:50.867Z,4989.0435
2023-04-30T06:13:52.140Z,5056.3477
2023-04-30T06:14:53.449Z,5405.3911
2023-04-30T06:15:54.681Z,5868.1738
2023-04-30T06:16:57.053Z,6233.7393
2023-04-30T06:17:58.481Z,6357.0435
2023-04-30T06:18:59.821Z,5786.2607
2023-04-30T06:20:01.111Z,5304.8696
2023-04-30T06:21:02.395Z,5063.8262
2023-04-30T06:22:03.760Z,4729.3911
2023-04-30T06:23:05.042Z,4559.1304
2023-04-30T06:24:06.350Z,4736.1738
2023-04-30T06:25:07.660Z,4434.6089
2023-04-30T06:26:09.000Z,4617.3911
2023-04-30T06:27:10.453Z,4635.6523
2023-04-30T06:28:11.846Z,4613.2173
2023-04-30T06:29:13.146Z,4773.0435
2023-04-30T06:30:14.463Z,4952.3477
2023-04-30T06:31:16.154Z,4664.5220
2023-04-30T06:32:17.689Z,4526.7827
2023-04-30T06:33:19.229Z,4664.6958
2023-04-30T06:34:20.671Z,5049.7393
2023-04-30T06:35:22.026Z,5564.0000
2023-04-30T06:36:23.359Z,5788.5220
2023-04-30T06:37:24.750Z,5965.0435
2023-04-30T06:38:26.152Z,6076.5220
2023-04-30T06:39:27.530Z,6622.0869
2023-04-30T06:40:28.939Z,6324.8696
2023-04-30T06:41:30.538Z,5569.5654
2023-04-30T06:42:32.026Z,5247.3042
2023-04-30T06:43:33.479Z,5528.8696
2023-04-30T06:44:34.894Z,5710.9565
2023-04-30T06:45:36.383Z,5147.8262
2023-04-30T06:46:37.910Z,4593.3911
2023-04-30T06:47:39.371Z,4502.7827
2023-04-30T06:48:41.009Z,4435.1304
2023-04-30T06:49:42.394Z,4410.0869
2023-04-30T06:50:43.864Z,4747.1304
2023-04-30T06:51:45.274Z,5074.6089
2023-04-30T06:52:46.734Z,5406.4346
2023-04-30T06:53:48.171Z,5788.5220
2023-04-30T06:54:49.600Z,5852.5220
2023-04-30T06:55:50.969Z,5329.7393
2023-04-30T06:56:52.442Z,5210.2607
2023-04-30T06:57:53.932Z,5265.5654
2023-04-30T06:58:55.370Z,4986.6089
2023-04-30T06:59:56.913Z,5354.0869
2023-04-30T07:00:58.569Z,5974.2607
2023-04-30T07:02:00.065Z,5849.5654
2023-04-30T07:03:02.039Z,5507.1304
2023-04-30T07:04:03.579Z,5862.2607
2023-04-30T07:05:05.012Z,6176.1738
2023-04-30T07:06:06.429Z,6769.0435
2023-04-30T07:07:07.842Z,6875.4780
2023-04-30T07:08:09.306Z,6840.5220
2023-04-30T07:09:10.717Z,6918.2607
2023-04-30T07:10:12.093Z,7369.2173
2023-04-30T07:11:13.583Z,8389.0439
2023-04-30T07:12:15.035Z,9198.2607
2023-04-30T07:13:16.599Z,9682.2607
2023-04-30T07:14:17.969Z,9587.1309
2023-04-30T07:15:19.407Z,10617.9131
2023-04-30T07:16:20.855Z,11846.6084
2023-04-30T07:17:22.764Z,12710.4346
2023-04-30T07:18:23.901Z,13199.6367
2023-04-30T07:19:25.423Z,13923.4785
2023-04-30T07:20:26.786Z,15359.4785
2023-04-30T07:21:28.130Z,16182.4346
2023-04-30T07:22:29.431Z,15766.6084
2023-04-30T07:23:30.858Z,15901.3916
2023-04-30T07:24:32.297Z,18554.4355
2023-04-30T07:25:33.742Z,18145.3906
2023-04-30T07:26:35.196Z,17366.9570
2023-04-30T07:27:36.669Z,17083.3047
2023-04-30T07:28:38.096Z,17364.5215
2023-04-30T07:29:39.460Z,15369.5654
2023-04-30T07:30:40.782Z,15795.6523
2023-04-30T07:31:42.045Z,14501.9131
2023-04-30T07:32:43.280Z,12436.6953
2023-04-30T07:33:44.568Z,11399.4785
2023-04-30T07:34:45.748Z,10990.2607
2023-04-30T07:35:46.958Z,11966.6084
2023-04-30T07:36:48.170Z,12281.5654
2023-04-30T07:37:49.406Z,10651.4785
2023-04-30T07:38:50.645Z,10917.5654
2023-04-30T07:39:51.857Z,11590.4346
2023-04-30T07:40:53.153Z,11073.3916
2023-04-30T07:41:54.359Z,11500.1738
2023-04-30T07:42:55.594Z,12080.0000
2023-04-30T07:43:56.893Z,12361.2178
2023-04-30T07:44:58.121Z,12890.6084
2023-04-30T07:45:59.312Z,13215.1309
2023-04-30T07:47:00.577Z,14878.7822
2023-04-30T07:48:01.863Z,14578.7822
2023-04-30T07:49:03.411Z,14350.2607
2023-04-30T07:50:04.699Z,14482.0869
2023-04-30T07:51:06.072Z,15207.4785
2023-04-30T07:52:07.272Z,15496.5215
2023-04-30T07:53:08.441Z,14727.3047
2023-04-30T07:54:09.724Z,15793.0439
2023-04-30T07:55:10.861Z,16583.8262
2023-04-30T07:56:12.126Z,14799.8262
2023-04-30T07:57:13.318Z,14073.7393
2023-04-30T07:58:14.451Z,14056.1738
2023-04-30T07:59:15.587Z,14734.0869
2023-04-30T08:00:16.768Z,17401.7383
2023-04-30T08:01:17.969Z,17423.8262
2023-04-30T08:02:19.184Z,15896.1738
2023-04-30T08:03:20.417Z,15105.2178
2023-04-30T08:04:21.856Z,15037.9131
2023-04-30T08:05:23.054Z,17408.5215
2023-04-30T08:06:24.342Z,17683.8262
2023-04-30T08:07:25.723Z,16329.5654
2023-04-30T08:08:26.872Z,16357.5654
2023-04-30T08:09:28.137Z,16385.2168
2023-04-30T08:10:29.291Z,17387.6523
2023-04-30T08:11:30.510Z,18238.6094
2023-04-30T08:12:31.668Z,17855.8262
2023-04-30T08:13:32.862Z,17618.2617
2023-04-30T08:14:34.156Z,17416.3477
2023-04-30T08:15:35.349Z,18660.1738
2023-04-30T08:16:36.558Z,18782.6094
2023-04-30T08:17:37.880Z,17857.9121
2023-04-30T08:18:39.145Z,18829.9121
2023-04-30T08:19:40.382Z,19130.4355
2023-04-30T08:20:41.639Z,17332.5215
2023-04-30T08:21:42.864Z,17669.9121
2023-04-30T08:22:44.143Z,17522.6094
2023-04-30T08:23:45.399Z,16857.2168
2023-04-30T08:24:46.730Z,16131.3047
2023-04-30T08:25:48.051Z,15929.7393
2023-04-30T08:26:49.350Z,19030.2617
2023-04-30T08:27:50.654Z,19440.6953
2023-04-30T08:28:51.949Z,18967.6523
2023-04-30T08:29:53.690Z,18689.3906
2023-04-30T08:30:55.634Z,18790.9570
2023-04-30T08:31:56.995Z,18387.4785
2023-04-30T08:32:58.372Z,17741.9121
2023-04-30T08:33:59.780Z,16290.7822
2023-04-30T08:35:01.234Z,14148.3477
2023-04-30T08:36:02.673Z,13213.5654
2023-04-30T08:37:04.105Z,15786.9561
2023-04-30T08:38:05.462Z,16967.4785
2023-04-30T08:39:06.841Z,17528.5215
2023-04-30T08:40:08.308Z,16129.2178
2023-04-30T08:41:09.796Z,16683.1309
2023-04-30T08:42:11.175Z,17279.8262
2023-04-30T08:43:12.943Z,17271.6523
2023-04-30T08:44:14.478Z,19009.3906
2023-04-30T08:45:15.923Z,18944.0000
2023-04-30T08:46:17.474Z,16982.7832
2023-04-30T08:47:19.025Z,19415.6523
2023-04-30T08:48:20.283Z,21938.0879
2023-04-30T08:49:22.804Z,20420.1738
2023-04-30T08:50:23.669Z,20209.4551
2023-04-30T08:51:24.911Z,20109.9121
2023-04-30T08:52:26.196Z,19518.6094
2023-04-30T08:53:27.519Z,17690.2617
2023-04-30T08:54:28.819Z,16214.2607
2023-04-30T08:55:30.150Z,15444.8691
2023-04-30T08:56:31.594Z,14107.3047
2023-04-30T08:57:33.028Z,13699.4785
2023-04-30T08:58:34.433Z,13864.3477
2023-04-30T08:59:35.989Z,13817.2178
2023-04-30T09:00:37.616Z,13507.4785
2023-04-30T09:01:39.067Z,11779.1309
2023-04-30T09:02:40.643Z,10610.2607
2023-04-30T09:03:42.128Z,10032.3477
2023-04-30T09:04:43.586Z,9979.3047
2023-04-30T09:05:44.990Z,11170.0869
2023-04-30T09:06:46.421Z,11754.0869
2023-04-30T09:08:47.816Z,12431.3682
2023-04-30T09:09:49.129Z,13227.4785
2023-04-30T09:10:50.563Z,14274.0869
2023-04-30T09:11:51.949Z,12649.0439
2023-04-30T09:12:53.376Z,11913.9131
2023-04-30T09:13:54.781Z,11903.8262
2023-04-30T09:14:56.109Z,11960.8691
2023-04-30T09:15:57.576Z,12788.5215
2023-04-30T09:16:58.987Z,13528.0000
2023-04-30T09:18:00.271Z,14503.6523
2023-04-30T09:19:01.596Z,14786.6084
2023-04-30T09:20:02.816Z,17170.7832
2023-04-30T09:21:04.198Z,18128.6953
2023-04-30T09:22:05.475Z,16389.3906
2023-04-30T09:23:07.022Z,14571.3047
2023-04-30T09:24:08.307Z,15856.1738
2023-04-30T09:25:09.626Z,15602.4346
2023-04-30T09:26:11.015Z,15184.6953
2023-04-30T09:27:12.566Z,14968.0000
2023-04-30T09:28:13.960Z,16389.7383
2023-04-30T09:29:15.352Z,15976.3477
2023-04-30T09:30:16.772Z,16399.1309
2023-04-30T09:31:18.204Z,17233.2168
2023-04-30T09:32:19.572Z,18906.4355
2023-04-30T09:33:20.988Z,19446.2617
2023-04-30T09:34:22.367Z,21872.6953
2023-04-30T09:35:23.849Z,20755.4785
2023-04-30T09:36:25.284Z,17007.8262
2023-04-30T09:37:26.677Z,15795.4785
2023-04-30T09:38:28.076Z,18739.4785
2023-04-30T09:39:29.595Z,19360.0000
2023-04-30T09:40:31.058Z,18142.6094
2023-04-30T09:41:32.396Z,18244.1738
2023-04-30T09:42:33.759Z,23858.0879
2023-04-30T09:43:35.054Z,24939.1309
2023-04-30T09:44:36.491Z,23482.4355
2023-04-30T09:45:37.784Z,22112.0000
2023-04-30T09:46:39.235Z,21627.8262
2023-04-30T09:47:40.828Z,21448.3477
2023-04-30T09:48:42.360Z,21067.1309
2023-04-30T09:49:43.893Z,21113.0430
2023-04-30T09:50:45.232Z,20641.3906
2023-04-30T09:51:46.696Z,21488.6953
2023-04-30T09:52:48.105Z,22710.2617
2023-04-30T09:53:49.487Z,24186.4355
2023-04-30T09:54:50.948Z,22573.9121
2023-04-30T09:55:52.277Z,21647.3047
2023-04-30T09:56:53.600Z,22594.7832
2023-04-30T09:57:54.783Z,20900.1738
2023-04-30T09:58:56.056Z,19034.4355
2023-04-30T09:59:57.573Z,20677.5645
2023-04-30T10:00:59.609Z,23019.1309
2023-04-30T10:02:01.282Z,22693.5645
2023-04-30T10:03:02.676Z,20403.4785
2023-04-30T10:04:04.179Z,20226.7832
2023-04-30T10:05:05.688Z,21423.3047
2023-04-30T10:06:06.987Z,18999.6523
2023-04-30T10:07:08.263Z,18540.5215
2023-04-30T10:08:09.377Z,17243.1309
2023-04-30T10:09:10.558Z,14312.5215
2023-04-30T10:10:11.971Z,14226.6084
2023-04-30T10:11:13.267Z,14081.0439
2023-04-30T10:12:14.621Z,15144.5215
2023-04-30T10:13:16.043Z,16302.2607
2023-04-30T10:14:17.348Z,20695.6523
2023-04-30T10:15:18.733Z,22369.3906
2023-04-30T10:16:19.904Z,19803.8262
2023-04-30T10:17:21.216Z,17701.5645
2023-04-30T10:18:22.412Z,17530.4355
2023-04-30T10:19:23.609Z,19389.2168
2023-04-30T10:20:24.748Z,22899.4785
2023-04-30T10:21:25.908Z,28890.4355
2023-04-30T10:22:27.231Z,27478.2617
2023-04-30T10:23:28.436Z,23702.2617
2023-04-30T10:24:29.674Z,21704.3477
2023-04-30T10:25:30.828Z,23744.0000
2023-04-30T10:26:32.168Z,26224.6953
2023-04-30T10:27:33.408Z,26144.0000
2023-04-30T10:28:34.629Z,27632.6953
2023-04-30T10:29:35.860Z,26354.0879
2023-04-30T10:30:37.031Z,24370.0879
2023-04-30T10:31:38.238Z,22682.4355
2023-04-30T10:32:39.532Z,23099.8262
2023-04-30T10:33:40.691Z,23949.9121
2023-04-30T10:34:41.969Z,21302.2617
2023-04-30T10:35:43.196Z,21516.5215
2023-04-30T10:36:44.518Z,23155.4785
2023-04-30T10:37:45.753Z,23486.6094
2023-04-30T10:38:48.498Z,22038.2617
2023-04-30T10:39:47.392Z,20535.2734
2023-04-30T10:40:48.511Z,22017.3906
2023-04-30T10:41:49.646Z,25190.9570
2023-04-30T10:42:50.833Z,27380.8691
2023-04-30T10:43:52.015Z,25324.5215
2023-04-30T10:44:53.219Z,24534.2617
2023-04-30T10:45:54.446Z,27323.8262
2023-04-30T10:46:55.679Z,28741.5645
2023-04-30T10:47:56.969Z,27442.0879
2023-04-30T10:48:58.176Z,27049.7383
2023-04-30T10:49:59.381Z,23827.4785
2023-04-30T10:51:00.579Z,23396.1738
2023-04-30T10:52:01.869Z,24683.1309
2023-04-30T10:53:03.061Z,28205.9121
2023-04-30T10:54:04.242Z,32269.9121
2023-04-30T10:55:05.522Z,33309.2188
2023-04-30T10:56:06.983Z,32848.6953
2023-04-30T10:57:08.505Z,28539.8262
2023-04-30T10:58:09.886Z,25945.0430
2023-04-30T10:59:11.312Z,25106.0879
2023-04-30T11:00:12.737Z,23273.7383
2023-04-30T11:01:14.204Z,19936.0000
2023-04-30T11:02:15.549Z,20108.5215
2023-04-30T11:03:16.986Z,19147.1309
2023-04-30T11:04:18.373Z,19628.5215
2023-04-30T11:05:19.951Z,23514.4355
2023-04-30T11:06:21.410Z,25789.2168
2023-04-30T11:07:22.740Z,24032.0000
2023-04-30T11:08:24.071Z,25577.7383
2023-04-30T11:09:25.400Z,23341.9121
2023-04-30T11:10:26.752Z,23910.9570
2023-04-30T11:11:28.073Z,24705.3906
2023-04-30T11:12:29.429Z,21604.1738
2023-04-30T11:13:30.809Z,23738.4355
2023-04-30T11:14:32.179Z,27289.0430
2023-04-30T11:15:33.561Z,28365.9121
2023-04-30T11:16:35.319Z,33869.9141
2023-04-30T11:17:36.819Z,32698.4355
2023-04-30T11:18:38.314Z,33523.4766
2023-04-30T11:19:39.654Z,30419.4785
2023-04-30T11:20:40.820Z,28592.6953
2023-04-30T11:21:42.011Z,31418.4355
2023-04-30T11:22:43.123Z,32510.6094
2023-04-30T11:23:44.302Z,32261.5645
2023-04-30T11:24:45.443Z,32976.6953
2023-04-30T11:25:46.496Z,29933.9121
2023-04-30T11:26:47.590Z,28742.9570
2023-04-30T11:27:48.657Z,27319.6523
2023-04-30T11:28:49.850Z,26501.5645
2023-04-30T11:29:50.941Z,33958.9570
2023-04-30T11:30:52.047Z,27471.3047
2023-04-30T11:31:53.228Z,25726.6094
2023-04-30T11:32:54.688Z,24802.7832
2023-04-30T11:33:55.899Z,25434.4355
2023-04-30T11:34:57.001Z,27725.9121
2023-04-30T11:35:58.090Z,31506.0879
2023-04-30T11:36:59.192Z,32517.5645
2023-04-30T11:38:00.292Z,34690.7812
2023-04-30T11:39:01.469Z,34615.6523
2023-04-30T11:40:02.652Z,30305.3906
2023-04-30T11:41:03.770Z,49740.5234
2023-04-30T11:42:04.822Z,77199.3047
2023-04-30T11:43:05.912Z,61996.5234
2023-04-30T11:44:06.930Z,39027.4766
2023-04-30T11:45:08.067Z,34196.8711
2023-04-30T11:46:09.098Z,31179.1309
2023-04-30T11:47:10.323Z,28336.6953
2023-04-30T11:48:11.437Z,32857.0430
2023-04-30T11:49:12.484Z,32741.5645
2023-04-30T11:50:13.570Z,29851.8262
2023-04-30T11:51:14.770Z,27753.7383
2023-04-30T11:52:15.854Z,28032.0000
2023-04-30T11:53:16.946Z,30468.1738
2023-04-30T11:54:18.105Z,40036.1758